Time;durP1;ratioP1;P1;durP2;ratioP2;P2;SDS_P1;SDS_P2;PMS_P1;PMS_P2;Temp;Humidity;BMP_temperature;BMP_pressure;BME280_temperature;BME280_humidity;BME280_pressure;Samples;Min_cycle;Max_cycle;Signal;HPM_P1;HPM_P2
2024/02/02 00:01:58;;;;;;;124.70;59.07;;;1.10;99.90;;;;;;4229548;28;20631;-62
2024/02/02 00:03:59;;;;;;;119.17;54.90;;;1.10;99.90;;;;;;4228393;28;20309;-62
2024/02/02 00:06:00;;;;;;;105.10;52.70;;;1.20;99.90;;;;;;4229576;28;20327;-64
2024/02/02 00:08:01;;;;;;;127.77;60.03;;;1.20;99.90;;;;;;4229063;28;20658;-63
2024/02/02 00:10:03;;;;;;;105.83;51.70;;;1.20;99.90;;;;;;4229762;27;20268;-62
2024/02/02 00:12:06;;;;;;;100.97;50.07;;;1.20;99.90;;;;;;4228485;28;20290;-62
2024/02/02 00:14:07;;;;;;;125.90;58.30;;;1.30;99.90;;;;;;4229346;28;20264;-62
2024/02/02 00:16:08;;;;;;;127.57;58.63;;;1.30;99.90;;;;;;4228893;28;20312;-64
2024/02/02 00:18:10;;;;;;;123.47;58.43;;;1.20;99.90;;;;;;4228511;27;20321;-62
2024/02/02 00:20:11;;;;;;;116.37;57.43;;;1.20;99.90;;;;;;4228727;28;20345;-62
2024/02/02 00:22:12;;;;;;;104.37;53.77;;;1.20;99.90;;;;;;4228355;28;20271;-63
2024/02/02 00:24:13;;;;;;;86.77;44.80;;;1.20;99.90;;;;;;4228668;28;20260;-62
2024/02/02 00:26:15;;;;;;;89.63;44.70;;;1.20;99.90;;;;;;4228107;28;20341;-62
2024/02/02 00:28:16;;;;;;;94.60;47.43;;;1.20;99.90;;;;;;4228996;28;20314;-62
2024/02/02 00:30:17;;;;;;;92.90;46.63;;;1.20;99.90;;;;;;4228277;28;20317;-63
2024/02/02 00:32:19;;;;;;;88.07;46.70;;;1.20;99.90;;;;;;4229319;28;20256;-66
2024/02/02 00:34:20;;;;;;;82.27;42.27;;;1.20;99.90;;;;;;4227764;28;20263;-62
2024/02/02 00:36:21;;;;;;;74.73;42.03;;;1.10;99.90;;;;;;4229286;28;20759;-65
2024/02/02 00:38:22;;;;;;;85.27;43.30;;;1.10;99.90;;;;;;4228095;28;20360;-62
2024/02/02 00:40:29;;;;;;;87.00;45.63;;;1.10;99.90;;;;;;4229051;28;20287;-64
2024/02/02 00:42:30;;;;;;;83.13;42.80;;;1.10;99.90;;;;;;4227786;27;20688;-62
2024/02/02 00:44:31;;;;;;;88.00;42.77;;;1.10;99.90;;;;;;4229228;27;20395;-63
2024/02/02 00:46:32;;;;;;;70.73;40.00;;;1.10;99.90;;;;;;4227804;28;20602;-63
2024/02/02 00:48:34;;;;;;;80.13;41.00;;;1.10;99.90;;;;;;4228530;28;20260;-63
2024/02/02 00:50:35;;;;;;;86.73;42.93;;;1.10;99.90;;;;;;4227792;27;20301;-61
2024/02/02 00:52:37;;;;;;;80.93;40.13;;;1.10;99.90;;;;;;4228559;28;20267;-62
2024/02/02 00:54:38;;;;;;;73.10;38.07;;;1.10;99.90;;;;;;4228604;28;20329;-63
2024/02/02 00:56:39;;;;;;;64.17;33.40;;;1.00;99.90;;;;;;4226732;27;20720;-62
2024/02/02 00:58:40;;;;;;;59.07;32.67;;;1.00;99.90;;;;;;4228307;28;20349;-63
2024/02/02 01:00:41;;;;;;;59.87;31.10;;;1.00;99.90;;;;;;4227248;28;20280;-62
2024/02/02 01:02:42;;;;;;;56.80;30.50;;;0.90;99.90;;;;;;4228705;28;20268;-62
2024/02/02 01:04:44;;;;;;;60.67;30.70;;;0.90;99.90;;;;;;4227645;28;20784;-61
2024/02/02 01:06:45;;;;;;;67.40;33.93;;;0.90;99.90;;;;;;4229108;27;20276;-63
2024/02/02 01:08:46;;;;;;;59.60;30.63;;;0.90;99.90;;;;;;4228336;27;20268;-63
2024/02/02 01:10:47;;;;;;;63.70;32.97;;;0.80;99.90;;;;;;4228701;28;20340;-63
2024/02/02 01:12:49;;;;;;;62.20;29.97;;;0.80;99.90;;;;;;4225940;28;20276;-63
2024/02/02 01:14:51;;;;;;;59.27;30.00;;;0.70;99.90;;;;;;4228676;28;20298;-64
2024/02/02 01:16:52;;;;;;;62.37;31.93;;;0.70;99.90;;;;;;4227482;28;20800;-63
2024/02/02 01:18:53;;;;;;;53.93;29.80;;;0.70;99.90;;;;;;4228350;28;20357;-63
2024/02/02 01:20:55;;;;;;;57.73;29.33;;;0.70;99.90;;;;;;4227375;28;20348;-62
2024/02/02 01:22:56;;;;;;;55.97;26.90;;;0.70;99.90;;;;;;4228024;28;20673;-64
2024/02/02 01:24:59;;;;;;;58.83;27.67;;;0.70;99.90;;;;;;4227460;28;20252;-62
2024/02/02 01:27:00;;;;;;;50.33;24.03;;;0.60;99.90;;;;;;4227555;28;20260;-63
2024/02/02 01:29:01;;;;;;;47.33;23.73;;;0.60;99.90;;;;;;4227832;28;21037;-62
2024/02/02 01:31:03;;;;;;;46.33;24.70;;;0.70;99.90;;;;;;4227163;28;20320;-62
2024/02/02 01:33:04;;;;;;;46.63;25.00;;;0.60;99.90;;;;;;4228608;27;20276;-63
2024/02/02 01:35:06;;;;;;;44.83;23.03;;;0.60;99.90;;;;;;4226572;28;20268;-63
2024/02/02 01:37:07;;;;;;;55.50;25.00;;;0.60;99.90;;;;;;4228470;28;20283;-61
2024/02/02 01:39:11;;;;;;;43.60;22.23;;;0.50;99.90;;;;;;4227770;28;20657;-64
2024/02/02 01:41:12;;;;;;;51.40;24.20;;;0.50;99.90;;;;;;4227952;28;20709;-65
2024/02/02 01:43:14;;;;;;;47.77;23.57;;;0.40;99.90;;;;;;4226893;28;20333;-65
2024/02/02 01:45:15;;;;;;;47.43;24.27;;;0.40;99.90;;;;;;4228407;28;20736;-67
2024/02/02 01:47:16;;;;;;;55.73;26.30;;;0.40;99.90;;;;;;4227126;27;20272;-63
2024/02/02 01:49:17;;;;;;;53.73;25.60;;;0.40;99.90;;;;;;4228322;28;20253;-64
2024/02/02 01:51:19;;;;;;;50.23;25.87;;;0.30;99.90;;;;;;4227381;28;20301;-64
2024/02/02 01:53:20;;;;;;;55.53;26.43;;;0.30;99.90;;;;;;4227827;28;20280;-63
2024/02/02 01:55:21;;;;;;;57.80;27.57;;;0.30;99.90;;;;;;4227081;28;20953;-62
2024/02/02 01:57:23;;;;;;;53.23;26.30;;;0.20;99.90;;;;;;4227403;28;20268;-65
2024/02/02 01:59:25;;;;;;;58.00;28.53;;;0.20;99.90;;;;;;4227421;28;20353;-62
2024/02/02 02:01:26;;;;;;;54.00;27.27;;;0.10;99.90;;;;;;4226916;28;20300;-63
2024/02/02 02:03:27;;;;;;;57.57;28.10;;;0.20;99.90;;;;;;4227712;28;20313;-61
2024/02/02 02:05:28;;;;;;;55.73;27.77;;;0.10;99.90;;;;;;4227075;28;20681;-63
2024/02/02 02:07:30;;;;;;;56.17;27.07;;;0.10;99.90;;;;;;4228371;28;20716;-61
2024/02/02 02:09:31;;;;;;;61.60;27.97;;;0.10;99.90;;;;;;4226652;28;20264;-64
2024/02/02 02:11:32;;;;;;;59.20;28.17;;;0.20;99.90;;;;;;4227449;28;20305;-64
2024/02/02 02:13:34;;;;;;;56.50;27.57;;;0.20;99.90;;;;;;4226610;28;20305;-62
2024/02/02 02:15:35;;;;;;;55.37;26.77;;;0.20;99.90;;;;;;4227865;28;20299;-62
2024/02/02 02:17:38;;;;;;;55.03;26.20;;;0.20;99.90;;;;;;4226819;28;20263;-62
2024/02/02 02:19:39;;;;;;;58.13;27.60;;;0.20;99.90;;;;;;4228169;28;20704;-63
2024/02/02 02:21:41;;;;;;;55.27;26.67;;;0.20;99.90;;;;;;4226669;28;20292;-63
2024/02/02 02:23:42;;;;;;;57.10;26.63;;;0.20;99.90;;;;;;4227578;28;20260;-63
2024/02/02 02:25:43;;;;;;;53.53;25.97;;;0.20;99.90;;;;;;4226682;28;20329;-66
2024/02/02 02:27:45;;;;;;;57.27;26.47;;;0.20;99.90;;;;;;4227630;28;20297;-63
2024/02/02 02:29:47;;;;;;;54.40;27.73;;;0.20;99.90;;;;;;4227328;28;20272;-65
2024/02/02 02:31:55;;;;;;;54.03;28.30;;;0.20;99.90;;;;;;4226024;28;20364;-64
2024/02/02 02:33:57;;;;;;;49.87;25.97;;;0.10;99.90;;;;;;4226452;28;20272;-62
2024/02/02 02:35:58;;;;;;;53.93;26.83;;;0.10;99.90;;;;;;4214791;28;20276;-64
2024/02/02 02:37:59;;;;;;;56.90;26.27;;;0.20;99.90;;;;;;4228017;28;20747;-63
2024/02/02 02:40:00;;;;;;;56.17;27.60;;;0.20;99.90;;;;;;4226604;28;20325;-66
2024/02/02 02:42:01;;;;;;;54.87;25.57;;;0.20;99.90;;;;;;4227294;28;20304;-62
2024/02/02 02:44:03;;;;;;;52.23;27.27;;;0.20;99.90;;;;;;4226869;28;20264;-62
2024/02/02 02:46:04;;;;;;;51.50;27.63;;;0.30;99.90;;;;;;4227792;28;20264;-61
2024/02/02 02:48:06;;;;;;;56.60;27.30;;;0.30;99.90;;;;;;4226528;28;20284;-64
2024/02/02 02:50:09;;;;;;;51.23;27.13;;;0.30;99.90;;;;;;4231133;27;20284;-65
2024/02/02 02:52:10;;;;;;;56.60;28.43;;;0.30;99.90;;;;;;4229755;27;20325;-63
2024/02/02 02:54:11;;;;;;;56.20;27.23;;;0.30;99.90;;;;;;4231337;27;20686;-62
2024/02/02 02:56:12;;;;;;;56.63;28.13;;;0.40;99.90;;;;;;4230053;27;20272;-62
2024/02/02 02:58:13;;;;;;;52.83;26.57;;;0.40;99.90;;;;;;4230546;27;20272;-63
2024/02/02 03:00:15;;;;;;;52.53;27.03;;;0.40;99.90;;;;;;4229807;28;20294;-65
2024/02/02 03:02:16;;;;;;;55.73;27.57;;;0.40;99.90;;;;;;4229118;27;20260;-62
2024/02/02 03:04:17;;;;;;;55.57;26.80;;;0.40;99.90;;;;;;4230055;27;20806;-63
2024/02/02 03:06:19;;;;;;;50.23;24.90;;;0.40;99.90;;;;;;4229900;27;20272;-65
2024/02/02 03:08:20;;;;;;;53.10;26.00;;;0.40;99.90;;;;;;4231141;27;20785;-65
2024/02/02 03:10:25;;;;;;;53.20;26.77;;;0.40;99.90;;;;;;4229240;28;20685;-63
2024/02/02 03:12:26;;;;;;;51.97;25.93;;;0.40;99.90;;;;;;4230422;27;20256;-63
2024/02/02 03:14:27;;;;;;;53.37;26.00;;;0.40;99.90;;;;;;4229164;28;20252;-65
2024/02/02 03:16:28;;;;;;;47.53;23.73;;;0.40;99.90;;;;;;4230967;28;20260;-63
2024/02/02 03:18:30;;;;;;;49.60;24.00;;;0.50;99.90;;;;;;4229259;28;20772;-63
2024/02/02 03:20:31;;;;;;;50.43;24.10;;;0.50;99.90;;;;;;4229991;28;20248;-62
2024/02/02 03:22:33;;;;;;;49.97;24.47;;;0.50;99.90;;;;;;4229168;28;20292;-64
2024/02/02 03:24:34;;;;;;;44.67;22.97;;;0.60;99.90;;;;;;4230361;28;20752;-65
2024/02/02 03:26:35;;;;;;;44.43;22.90;;;0.60;99.90;;;;;;4229153;28;20305;-62
2024/02/02 03:28:36;;;;;;;44.47;22.43;;;0.60;99.90;;;;;;4230209;28;20626;-62
2024/02/02 03:30:37;;;;;;;46.33;22.90;;;0.70;99.90;;;;;;4229291;28;20281;-63
2024/02/02 03:32:39;;;;;;;46.40;23.90;;;0.70;99.90;;;;;;4230113;28;20264;-62
2024/02/02 03:34:40;;;;;;;42.27;21.97;;;0.70;99.90;;;;;;4228524;28;20793;-62
2024/02/02 03:36:41;;;;;;;50.77;24.77;;;0.80;99.90;;;;;;4229890;27;20808;-63
2024/02/02 03:38:42;;;;;;;45.27;22.17;;;0.80;99.90;;;;;;4229602;28;20328;-65
2024/02/02 03:40:43;;;;;;;49.63;23.17;;;0.80;99.90;;;;;;4229351;28;20284;-64
2024/02/02 03:42:45;;;;;;;42.40;22.40;;;0.80;99.90;;;;;;4229746;28;20329;-63
2024/02/02 03:44:46;;;;;;;41.60;21.57;;;0.80;99.90;;;;;;4228786;27;20321;-62
2024/02/02 03:46:47;;;;;;;45.37;23.30;;;0.90;99.90;;;;;;4230525;28;20272;-62
2024/02/02 03:48:50;;;;;;;48.00;23.70;;;0.90;99.90;;;;;;4228770;28;20259;-62
2024/02/02 03:50:51;;;;;;;44.60;21.67;;;0.90;99.90;;;;;;4229897;28;20280;-62
2024/02/02 03:52:54;;;;;;;45.67;24.47;;;0.90;99.90;;;;;;4228764;28;20268;-62
2024/02/02 03:54:56;;;;;;;40.90;22.07;;;0.90;99.90;;;;;;4229764;28;20317;-62
2024/02/02 03:56:57;;;;;;;41.10;21.47;;;0.90;99.90;;;;;;4228455;28;20751;-62
2024/02/02 03:58:58;;;;;;;36.80;19.70;;;0.90;99.90;;;;;;4229280;28;20268;-66
2024/02/02 04:01:00;;;;;;;38.90;20.80;;;0.90;99.90;;;;;;4227726;28;20718;-62
2024/02/02 04:03:01;;;;;;;40.43;20.10;;;1.00;99.90;;;;;;4229562;27;20755;-63
2024/02/02 04:05:02;;;;;;;41.90;21.13;;;1.00;99.90;;;;;;4228758;28;20313;-61
2024/02/02 04:07:03;;;;;;;43.17;19.80;;;1.00;99.90;;;;;;4229187;28;20256;-62
2024/02/02 04:09:05;;;;;;;36.77;18.93;;;1.00;99.90;;;;;;4228343;28;20341;-61
2024/02/02 04:11:07;;;;;;;36.10;18.57;;;1.00;99.90;;;;;;4228450;28;20256;-62
2024/02/02 04:13:09;;;;;;;36.73;18.30;;;1.00;99.90;;;;;;4228455;28;20260;-61
2024/02/02 04:15:10;;;;;;;34.57;19.23;;;1.00;99.90;;;;;;4228850;28;20678;-62
2024/02/02 04:17:11;;;;;;;34.00;18.37;;;1.10;99.90;;;;;;4229752;28;20317;-62
2024/02/02 04:19:17;;;;;;;37.17;18.10;;;1.10;99.90;;;;;;4228424;28;20325;-62
2024/02/02 04:21:18;;;;;;;31.13;17.07;;;1.10;99.90;;;;;;4228839;27;20353;-62
2024/02/02 04:23:20;;;;;;;38.80;18.70;;;1.10;99.90;;;;;;4228546;27;20264;-62
2024/02/02 04:25:21;;;;;;;36.20;17.60;;;1.10;99.90;;;;;;4229338;28;20287;-62
2024/02/02 04:27:22;;;;;;;34.60;17.23;;;1.20;99.90;;;;;;4227517;28;20566;-63
2024/02/02 04:29:23;;;;;;;36.03;18.50;;;1.20;99.90;;;;;;4229609;28;20340;-62
2024/02/02 04:31:27;;;;;;;34.20;17.03;;;1.20;99.90;;;;;;4227888;28;20276;-61
2024/02/02 04:33:28;;;;;;;33.83;18.43;;;1.20;99.90;;;;;;4228505;27;20280;-64
2024/02/02 04:35:34;;;;;;;32.80;18.43;;;1.20;99.90;;;;;;4228312;27;20377;-61
2024/02/02 04:37:38;;;;;;;31.63;16.80;;;1.20;99.90;;;;;;4228969;28;21117;-63
2024/02/02 04:39:39;;;;;;;34.47;16.53;;;1.20;99.90;;;;;;4228314;27;20284;-61
2024/02/02 04:41:40;;;;;;;30.87;17.53;;;1.20;99.90;;;;;;4228387;27;20843;-61
2024/02/02 04:43:42;;;;;;;33.27;16.13;;;1.20;99.90;;;;;;4227782;28;20276;-61
2024/02/02 04:45:43;;;;;;;32.33;16.73;;;1.20;99.90;;;;;;4227835;27;20329;-63
2024/02/02 04:47:44;;;;;;;34.47;16.83;;;1.20;99.90;;;;;;4228409;28;20275;-61
2024/02/02 04:49:45;;;;;;;34.20;18.07;;;1.30;99.90;;;;;;4228530;28;20597;-62
2024/02/02 04:51:47;;;;;;;34.13;17.83;;;1.30;99.90;;;;;;4228657;28;20268;-61
2024/02/02 04:53:48;;;;;;;32.27;16.33;;;1.30;99.90;;;;;;4227698;28;20265;-60
2024/02/02 04:55:49;;;;;;;32.90;18.23;;;1.20;99.90;;;;;;4228721;28;20271;-60
2024/02/02 04:57:50;;;;;;;35.80;18.13;;;1.30;99.90;;;;;;4227462;28;20957;-61
2024/02/02 04:59:51;;;;;;;33.30;17.73;;;1.30;99.90;;;;;;4228933;28;20276;-63
2024/02/02 05:01:53;;;;;;;33.73;17.70;;;1.30;99.90;;;;;;4227071;28;21335;-61
2024/02/02 05:03:54;;;;;;;31.77;16.97;;;1.30;99.90;;;;;;4228331;28;20264;-62
2024/02/02 05:05:55;;;;;;;32.57;16.30;;;1.20;99.90;;;;;;4227429;28;20670;-62
2024/02/02 05:07:56;;;;;;;33.53;17.17;;;1.20;99.90;;;;;;4228665;28;20264;-64
2024/02/02 05:09:58;;;;;;;36.83;18.37;;;1.30;99.90;;;;;;4227491;28;20264;-62
2024/02/02 05:11:59;;;;;;;39.07;19.50;;;1.30;99.90;;;;;;4228498;27;20298;-64
2024/02/02 05:14:00;;;;;;;38.00;19.27;;;1.20;99.90;;;;;;4226952;28;20244;-63
2024/02/02 05:16:01;;;;;;;35.77;17.93;;;1.20;99.90;;;;;;4228836;28;20267;-62
2024/02/02 05:18:03;;;;;;;35.97;17.57;;;1.20;99.90;;;;;;4227866;27;20748;-61
2024/02/02 05:20:05;;;;;;;39.40;17.87;;;1.20;99.90;;;;;;4229061;28;20279;-66
2024/02/02 05:22:07;;;;;;;37.00;18.03;;;1.20;99.90;;;;;;4223589;28;20288;-61
2024/02/02 05:24:09;;;;;;;32.40;15.60;;;1.20;99.90;;;;;;4227099;28;20319;-61
2024/02/02 05:26:10;;;;;;;31.93;15.87;;;1.20;99.90;;;;;;4228107;28;20652;-62
2024/02/02 05:28:11;;;;;;;32.77;16.60;;;1.30;99.90;;;;;;4227159;28;20416;-60
2024/02/02 05:30:12;;;;;;;33.00;16.50;;;1.30;99.90;;;;;;4228201;28;20264;-61
2024/02/02 05:32:14;;;;;;;31.53;16.23;;;1.30;99.90;;;;;;4227140;28;20268;-61
2024/02/02 05:34:15;;;;;;;35.20;17.23;;;1.30;99.90;;;;;;4227435;28;20321;-61
2024/02/02 05:36:16;;;;;;;33.30;16.73;;;1.40;99.90;;;;;;4226712;28;20619;-62
2024/02/02 05:38:17;;;;;;;31.83;17.23;;;1.40;99.90;;;;;;4228083;28;20659;-60
2024/02/02 05:40:18;;;;;;;28.17;16.07;;;1.40;99.90;;;;;;4224577;28;20268;-62
2024/02/02 05:42:19;;;;;;;33.43;15.43;;;1.40;99.90;;;;;;4227683;28;20341;-61
2024/02/02 05:44:21;;;;;;;28.07;15.37;;;1.40;99.90;;;;;;4221845;28;20264;-61
2024/02/02 05:46:22;;;;;;;31.07;16.17;;;1.40;99.90;;;;;;4228313;28;20321;-60
2024/02/02 05:48:23;;;;;;;28.00;16.53;;;1.50;99.90;;;;;;4227723;28;20701;-60
2024/02/02 05:50:24;;;;;;;31.50;17.83;;;1.40;99.90;;;;;;4227414;28;20313;-61
2024/02/02 05:52:26;;;;;;;32.97;16.60;;;1.40;99.90;;;;;;4227262;28;20797;-59
2024/02/02 05:54:27;;;;;;;33.13;17.70;;;1.40;99.90;;;;;;4227125;28;20268;-61
2024/02/02 05:56:28;;;;;;;31.27;16.57;;;1.50;99.90;;;;;;4227233;28;20794;-60
2024/02/02 05:58:29;;;;;;;30.37;16.20;;;1.50;99.90;;;;;;4227229;28;20837;-63
2024/02/02 06:00:30;;;;;;;30.13;14.93;;;1.50;99.90;;;;;;4228085;28;20309;-61
2024/02/02 06:02:31;;;;;;;31.03;14.77;;;1.50;99.90;;;;;;4226361;28;20341;-60
2024/02/02 06:04:32;;;;;;;29.00;14.63;;;1.50;99.90;;;;;;4226826;28;20260;-66
2024/02/02 06:06:34;;;;;;;31.60;16.47;;;1.50;99.90;;;;;;4215701;28;20765;-61
2024/02/02 06:08:35;;;;;;;31.50;14.93;;;1.60;99.90;;;;;;4227845;28;20256;-63
2024/02/02 06:10:36;;;;;;;31.20;16.23;;;1.60;99.90;;;;;;4222127;28;20322;-62
2024/02/02 06:12:37;;;;;;;30.50;16.57;;;1.60;99.90;;;;;;4210089;28;20669;-63
2024/02/02 06:14:39;;;;;;;26.83;14.47;;;1.60;99.90;;;;;;4209047;28;20354;-63
2024/02/02 06:16:40;;;;;;;36.60;17.50;;;1.50;99.90;;;;;;4210401;28;20261;-62
2024/02/02 06:18:42;;;;;;;32.13;17.00;;;1.60;99.90;;;;;;4208923;28;20315;-62
2024/02/02 06:20:43;;;;;;;28.23;15.53;;;1.60;99.90;;;;;;4209499;28;20276;-61
2024/02/02 06:22:44;;;;;;;29.33;15.07;;;1.60;99.90;;;;;;4209134;28;20373;-61
2024/02/02 06:24:45;;;;;;;30.07;14.70;;;1.60;99.90;;;;;;4213617;28;20261;-62
2024/02/02 06:26:46;;;;;;;28.13;14.80;;;1.60;99.90;;;;;;4213947;28;20633;-62
2024/02/02 06:28:48;;;;;;;29.30;15.23;;;1.70;99.90;;;;;;4212785;28;20260;-62
2024/02/02 06:30:49;;;;;;;33.03;16.80;;;1.70;99.90;;;;;;4213997;28;20276;-61
2024/02/02 06:32:59;;;;;;;35.50;19.87;;;1.70;99.90;;;;;;4213085;28;20606;-59
2024/02/02 06:35:01;;;;;;;27.77;15.60;;;1.70;99.90;;;;;;4214551;28;20300;-62
2024/02/02 06:37:02;;;;;;;29.30;15.73;;;1.70;99.90;;;;;;4213330;28;20028;-62
2024/02/02 06:39:03;;;;;;;31.57;16.27;;;1.80;99.90;;;;;;4214184;28;20257;-62
2024/02/02 06:41:06;;;;;;;30.47;16.80;;;1.80;99.90;;;;;;4212961;28;20252;-62
2024/02/02 06:43:07;;;;;;;26.90;15.93;;;1.80;99.90;;;;;;4213715;28;20292;-62
2024/02/02 06:45:08;;;;;;;28.93;16.20;;;1.90;99.90;;;;;;4212865;28;20294;-59
2024/02/02 06:47:10;;;;;;;26.43;15.50;;;1.90;99.90;;;;;;4214010;28;20348;-62
2024/02/02 06:49:11;;;;;;;26.93;14.77;;;1.90;99.90;;;;;;4212538;28;20292;-62
2024/02/02 06:51:12;;;;;;;27.37;15.07;;;2.00;99.90;;;;;;4213873;28;20265;-64
2024/02/02 06:53:15;;;;;;;28.13;15.00;;;2.00;99.90;;;;;;4212786;28;20256;-62
2024/02/02 06:55:16;;;;;;;29.00;15.30;;;2.10;99.90;;;;;;4213736;28;20837;-64
2024/02/02 06:57:17;;;;;;;31.10;15.20;;;2.10;99.90;;;;;;4212826;28;20313;-62
2024/02/02 06:59:18;;;;;;;31.43;15.17;;;2.20;99.90;;;;;;4213315;28;20261;-62
2024/02/02 07:01:20;;;;;;;29.60;15.03;;;2.30;99.90;;;;;;4213333;28;20245;-62
2024/02/02 07:03:21;;;;;;;35.87;16.80;;;2.20;99.90;;;;;;4211075;28;20276;-64
2024/02/02 07:05:22;;;;;;;27.50;16.03;;;2.20;99.90;;;;;;4213862;28;20261;-63
2024/02/02 07:07:24;;;;;;;30.50;15.80;;;2.20;99.90;;;;;;4212742;28;20310;-63
2024/02/02 07:09:31;;;;;;;30.40;15.27;;;2.20;99.90;;;;;;4213474;28;20302;-65
2024/02/02 07:12:06;;;;;;;29.53;16.17;;;2.20;99.90;;;;;;4212672;28;20298;-63
2024/02/02 07:14:16;;;;;;;31.73;16.57;;;2.30;99.90;;;;;;4213256;28;20264;-62
2024/02/02 07:16:29;;;;;;;28.75;15.52;;;2.30;99.90;;;;;;4212935;28;20535;-64
2024/02/02 07:18:36;;;;;;;26.47;15.73;;;2.30;99.90;;;;;;4213197;28;20081;-63
2024/02/02 07:21:00;;;;;;;29.40;15.73;;;2.30;99.90;;;;;;4212720;28;20253;-63
2024/02/02 07:23:03;;;;;;;35.30;16.90;;;2.40;99.90;;;;;;4212705;28;20346;-62
2024/02/02 07:25:13;;;;;;;29.40;17.23;;;2.40;99.90;;;;;;4212842;28;20269;-61
2024/02/02 07:27:46;;;;;;;29.05;16.48;;;2.40;99.90;;;;;;4212805;28;20806;-63
2024/02/02 07:29:48;;;;;;;31.33;16.97;;;2.40;99.90;;;;;;4213103;28;20438;-62
2024/02/02 07:31:49;;;;;;;33.07;16.73;;;2.50;99.90;;;;;;4212673;28;20295;-63
2024/02/02 07:33:50;;;;;;;31.07;16.13;;;2.50;99.90;;;;;;4212604;28;20338;-62
2024/02/02 07:35:53;;;;;;;25.33;14.23;;;2.50;99.90;;;;;;4213520;28;20338;-64
2024/02/02 07:37:55;;;;;;;24.30;14.50;;;2.50;99.90;;;;;;4212455;28;20319;-63
2024/02/02 07:39:56;;;;;;;38.23;16.30;;;2.50;99.90;;;;;;4213322;28;20890;-63
2024/02/02 07:41:58;;;;;;;32.23;17.33;;;2.50;99.90;;;;;;4211975;28;20300;-63
2024/02/02 07:44:01;;;;;;;30.03;16.30;;;2.50;99.90;;;;;;4213160;28;20310;-64
2024/02/02 07:46:03;;;;;;;28.17;15.20;;;2.60;99.90;;;;;;4211879;28;20261;-63
2024/02/02 07:48:05;;;;;;;27.90;16.50;;;2.60;99.90;;;;;;4213150;28;20269;-63
2024/02/02 07:50:07;;;;;;;26.77;14.77;;;2.70;99.90;;;;;;4212103;28;20269;-62
2024/02/02 07:52:08;;;;;;;25.57;15.07;;;2.80;99.90;;;;;;4213220;28;20330;-62
2024/02/02 07:54:10;;;;;;;31.70;15.40;;;2.90;99.90;;;;;;4211834;28;20273;-63
2024/02/02 07:56:12;;;;;;;29.77;15.00;;;3.10;99.90;;;;;;4212934;28;20276;-62
2024/02/02 07:58:14;;;;;;;32.00;17.07;;;3.10;99.90;;;;;;4211802;28;20273;-63
2024/02/02 08:00:16;;;;;;;32.67;16.43;;;3.20;99.90;;;;;;4212937;28;20350;-62
2024/02/02 08:02:18;;;;;;;33.03;16.37;;;3.30;99.90;;;;;;4211684;28;20297;-62
2024/02/02 08:04:20;;;;;;;32.57;16.60;;;3.30;99.90;;;;;;4212640;28;20276;-62
2024/02/02 08:06:21;;;;;;;24.20;12.73;;;3.50;99.90;;;;;;4212310;28;20252;-62
2024/02/02 08:08:22;;;;;;;26.67;12.87;;;3.60;99.90;;;;;;4212188;28;20256;-62
2024/02/02 08:10:23;;;;;;;20.80;12.73;;;3.60;99.90;;;;;;4211716;28;20245;-62
2024/02/02 08:12:24;;;;;;;26.30;12.47;;;3.60;99.90;;;;;;4211621;28;20261;-62
2024/02/02 08:14:25;;;;;;;24.20;13.07;;;3.70;99.90;;;;;;4212677;28;20257;-63
2024/02/02 08:16:27;;;;;;;24.50;12.60;;;3.80;99.90;;;;;;4211392;28;20676;-62
2024/02/02 08:18:29;;;;;;;26.53;12.47;;;4.00;99.90;;;;;;4212589;28;20265;-62
2024/02/02 08:20:30;;;;;;;26.80;12.67;;;4.00;99.90;;;;;;4211497;28;20826;-61
2024/02/02 08:22:31;;;;;;;18.77;11.23;;;4.20;99.90;;;;;;4212214;28;20782;-63
2024/02/02 08:24:32;;;;;;;21.47;11.23;;;4.20;99.90;;;;;;4211362;28;20915;-62
2024/02/02 08:26:34;;;;;;;15.40;9.57;;;4.20;99.90;;;;;;4212563;28;20269;-62
2024/02/02 08:28:35;;;;;;;19.80;9.73;;;4.30;99.90;;;;;;4211282;28;20314;-62
2024/02/02 08:30:36;;;;;;;16.53;8.90;;;4.30;99.90;;;;;;4212338;28;20260;-62
2024/02/02 08:32:38;;;;;;;18.60;9.87;;;4.20;99.90;;;;;;4211169;28;20318;-63
2024/02/02 08:34:41;;;;;;;20.53;10.13;;;4.20;99.90;;;;;;4212332;28;20276;-64
2024/02/02 08:36:42;;;;;;;17.83;10.30;;;4.30;99.90;;;;;;4211739;28;20314;-63
2024/02/02 08:38:43;;;;;;;19.93;10.37;;;4.30;99.90;;;;;;4210644;28;20667;-60
2024/02/02 08:40:47;;;;;;;19.50;10.73;;;4.30;99.90;;;;;;4211568;28;20276;-63
2024/02/02 08:42:48;;;;;;;16.87;9.63;;;4.30;99.90;;;;;;4211135;28;20296;-62
2024/02/02 08:44:55;;;;;;;18.07;9.60;;;4.30;99.90;;;;;;4211228;28;21187;-62
2024/02/02 08:46:57;;;;;;;18.63;7.93;;;4.30;99.90;;;;;;4210913;28;20704;-62
2024/02/02 08:48:58;;;;;;;17.40;9.07;;;4.30;99.90;;;;;;4210544;28;20289;-62
2024/02/02 08:51:00;;;;;;;17.80;8.60;;;4.30;99.90;;;;;;4210828;28;20334;-62
2024/02/02 08:53:01;;;;;;;19.07;9.13;;;4.30;99.90;;;;;;4212091;28;20330;-62
2024/02/02 08:55:16;;;;;;;21.20;8.97;;;4.30;99.90;;;;;;4210584;28;20659;-61
2024/02/02 08:58:12;;;;;;;15.63;8.67;;;4.30;99.90;;;;;;4211197;28;20659;-62
2024/02/02 09:00:16;;;;;;;16.97;8.53;;;4.30;99.90;;;;;;4159190;28;20325;-63
2024/02/02 09:02:55;;;;;;;15.80;8.67;;;4.30;99.90;;;;;;4175540;28;20298;-61
2024/02/02 09:05:06;;;;;;;17.57;9.43;;;4.40;99.90;;;;;;4185744;28;20314;-63
2024/02/02 09:07:09;;;;;;;;;;;4.40;99.90;;;;;;4211446;28;20268;-64
2024/02/02 09:09:17;;;;;;;19.43;9.20;;;4.50;99.90;;;;;;4211641;28;19904;-63
2024/02/02 09:11:20;;;;;;;16.30;8.97;;;4.40;99.90;;;;;;4210636;28;20256;-62
2024/02/02 09:13:24;;;;;;;17.33;9.93;;;4.50;99.90;;;;;;4211325;28;20319;-65
2024/02/02 09:15:26;;;;;;;15.07;9.20;;;4.50;99.90;;;;;;4209382;28;20261;-62
2024/02/02 09:17:30;;;;;;;21.07;10.33;;;4.60;99.90;;;;;;4211400;28;20265;-63
2024/02/02 09:19:41;;;;;;;15.93;10.00;;;4.60;99.90;;;;;;4210611;28;20325;-64
2024/02/02 09:21:42;;;;;;;17.88;10.30;;;4.60;99.90;;;;;;4210871;28;20304;-65
2024/02/02 09:23:49;;;;;;;20.47;9.70;;;4.60;99.90;;;;;;4210727;28;20086;-63
2024/02/02 09:25:50;;;;;;;19.73;10.07;;;4.60;99.90;;;;;;4211021;28;20322;-64
2024/02/02 09:27:52;;;;;;;22.37;10.47;;;4.70;99.90;;;;;;4211001;28;20261;-63
2024/02/02 09:29:54;;;;;;;19.07;8.83;;;4.70;99.90;;;;;;4210220;28;20288;-64
2024/02/02 09:31:55;;;;;;;14.50;8.43;;;4.70;99.90;;;;;;4211097;28;20322;-63
2024/02/02 09:33:57;;;;;;;16.07;8.07;;;4.70;99.90;;;;;;4209918;28;20667;-65
2024/02/02 09:36:02;;;;;;;15.77;8.13;;;4.60;99.90;;;;;;4211870;28;20311;-63
2024/02/02 09:38:04;;;;;;;14.10;7.67;;;4.60;99.90;;;;;;4210392;28;20381;-62
2024/02/02 09:40:41;;;;;;;11.63;6.93;;;4.60;99.90;;;;;;4211061;28;20260;-62
2024/02/02 09:43:15;;;;;;;13.70;7.60;;;4.60;99.90;;;;;;4209686;28;20292;-63
2024/02/02 09:45:43;;;;;;;13.50;6.87;;;4.60;99.90;;;;;;4209483;28;20366;-63
2024/02/02 09:47:51;;;;;;;16.87;7.80;;;4.60;99.90;;;;;;4210492;28;20659;-62
2024/02/02 09:50:27;;;;;;;23.73;11.43;;;4.60;99.90;;;;;;4210271;28;20278;-63
2024/02/02 09:52:31;;;;;;;25.50;15.03;;;4.50;99.90;;;;;;4197376;28;20276;-61
2024/02/02 09:54:55;;;;;;;20.07;10.77;;;4.50;99.90;;;;;;4210043;28;20322;-61
2024/02/02 09:57:15;;;;;;;15.40;8.57;;;4.50;99.90;;;;;;4210700;28;20273;-63
2024/02/02 09:59:35;;;;;;;15.23;7.73;;;4.60;99.90;;;;;;4209528;28;20762;-62
2024/02/02 10:01:39;;;;;;;15.17;8.10;;;4.60;99.90;;;;;;4211124;28;20269;-61
2024/02/02 10:03:44;;;;;;;14.93;8.53;;;4.60;99.90;;;;;;4209903;28;20288;-62
2024/02/02 10:05:48;;;;;;;13.70;6.13;;;4.60;99.90;;;;;;4211037;28;20288;-62
2024/02/02 10:08:24;;;;;;;11.63;5.90;;;4.60;99.90;;;;;;4209627;28;20341;-63
2024/02/02 10:10:47;;;;;;;21.50;8.93;;;4.60;99.90;;;;;;4209732;28;20273;-62
2024/02/02 10:13:12;;;;;;;13.20;7.23;;;4.70;99.90;;;;;;4208458;28;20273;-62
2024/02/02 10:15:26;;;;;;;25.00;11.23;;;4.80;99.90;;;;;;4210962;28;20326;-62
2024/02/02 10:17:46;;;;;;;21.60;9.80;;;4.80;99.90;;;;;;4209903;28;20666;-61
2024/02/02 10:20:07;;;;;;;15.93;8.20;;;4.90;99.90;;;;;;4210663;28;20265;-61
2024/02/02 10:22:10;;;;;;;;;;;4.80;99.90;;;;;;4210614;28;20193;-62
2024/02/02 10:24:53;;;;;;;46.27;16.47;;;4.80;99.90;;;;;;4210091;28;19973;-61
2024/02/02 10:27:08;;;;;;;22.23;9.60;;;4.80;99.90;;;;;;4210991;28;20721;-62
2024/02/02 10:29:23;;;;;;;32.17;13.23;;;4.80;99.90;;;;;;4209812;28;20313;-62
2024/02/02 10:31:37;;;;;;;25.33;9.73;;;4.80;99.90;;;;;;4211350;28;20036;-64
2024/02/02 10:34:08;;;;;;;28.20;10.53;;;4.80;99.90;;;;;;4209414;28;20322;-62
2024/02/02 10:36:09;;;;;;;32.50;11.93;;;4.80;99.90;;;;;;4211173;28;20090;-62
2024/02/02 10:38:36;;;;;;;42.30;14.13;;;4.80;99.90;;;;;;4210150;28;20298;-62